Time;durP1;ratioP1;P1;durP2;ratioP2;P2;SDS_P1;SDS_P2;PMS_P1;PMS_P2;Temp;Humidity;BMP_temperature;BMP_pressure;BME280_temperature;BME280_humidity;BME280_pressure;Samples;Min_cycle;Max_cycle;Signal;HPM_P1;HPM_P2
2022/08/22 00:02:13;;;;;;;4.17;3.77;;;18.10;99.90;;;;;;5093696;28;20431;-75
2022/08/22 00:04:49;;;;;;;6.50;4.10;;;17.90;1.00;;;;;;5094056;28;20756;-73
2022/08/22 00:07:27;;;;;;;5.40;3.70;;;17.90;1.00;;;;;;5093920;28;20468;-73
2022/08/22 00:10:07;;;;;;;5.13;4.00;;;18.00;1.00;;;;;;5094018;28;20830;-75
2022/08/22 00:12:40;;;;;;;6.63;4.43;;;18.00;1.00;;;;;;5094470;28;20432;-76
2022/08/22 00:15:11;;;;;;;6.73;4.30;;;18.00;99.90;;;;;;5095217;28;20424;-76
2022/08/22 00:17:50;;;;;;;6.50;4.33;;;17.90;99.90;;;;;;5093732;28;20479;-74
2022/08/22 00:20:22;;;;;;;4.57;4.20;;;17.80;1.00;;;;;;5093329;28;20471;-74
2022/08/22 00:22:58;;;;;;;4.97;4.57;;;17.70;1.00;;;;;;5094297;28;20431;-74
2022/08/22 00:25:44;;;;;;;4.10;3.80;;;17.70;1.00;;;;;;5093976;28;20777;-74
2022/08/22 00:28:15;;;;;;;5.30;4.33;;;17.70;1.00;;;;;;5093558;28;20460;-74
2022/08/22 00:30:50;;;;;;;7.10;3.83;;;17.70;1.00;;;;;;5094154;28;20780;-75
2022/08/22 00:33:24;;;;;;;6.83;4.10;;;17.50;1.00;;;;;;5093217;28;20424;-74
2022/08/22 00:36:09;;;;;;;4.07;3.77;;;17.40;1.00;;;;;;5093569;28;20431;-74
2022/08/22 00:38:42;;;;;;;6.33;3.90;;;17.50;1.00;;;;;;5093034;28;20479;-74
2022/08/22 00:41:24;;;;;;;7.83;4.27;;;17.50;1.00;;;;;;5093150;28;20467;-74
2022/08/22 00:44:19;;;;;;;5.90;4.40;;;17.40;1.00;;;;;;5093444;28;20814;-74
2022/08/22 00:47:02;;;;;;;5.97;4.13;;;17.30;1.00;;;;;;5085812;28;20563;-74
2022/08/22 00:49:43;;;;;;;5.50;3.80;;;17.30;1.00;;;;;;5093358;28;20432;-75
2022/08/22 00:52:51;;;;;;;4.80;4.20;;;17.20;1.00;;;;;;5093482;28;20443;-74
2022/08/22 00:55:35;;;;;;;6.40;3.63;;;17.20;1.00;;;;;;5087431;28;20459;-74
2022/08/22 00:58:35;;;;;;;5.30;4.40;;;17.30;1.00;;;;;;5093286;28;20517;-74
2022/08/22 01:01:06;;;;;;;5.67;3.70;;;17.40;1.00;;;;;;5089603;28;20482;-74
2022/08/22 01:04:10;;;;;;;5.20;4.70;;;17.50;1.00;;;;;;5093164;28;20787;-74
2022/08/22 01:06:45;;;;;;;5.27;4.30;;;17.30;1.00;;;;;;5093205;28;20493;-74
2022/08/22 01:09:27;;;;;;;5.40;4.83;;;17.10;26.70;;;;;;5093212;28;20780;-74
2022/08/22 01:12:13;;;;;;;5.17;4.67;;;17.00;74.20;;;;;;5093141;28;20864;-74
2022/08/22 01:14:47;;;;;;;5.43;5.03;;;16.80;23.80;;;;;;5093172;28;20432;-74
2022/08/22 01:17:44;;;;;;;4.93;4.43;;;16.90;7.60;;;;;;5092737;28;21003;-74
2022/08/22 01:20:41;;;;;;;5.63;4.90;;;16.90;1.00;;;;;;5092833;28;20472;-74
2022/08/22 01:23:38;;;;;;;5.50;4.70;;;17.00;16.40;;;;;;5093005;28;20553;-74
2022/08/22 01:26:52;;;;;;;4.97;4.47;;;17.00;14.80;;;;;;5092619;28;20432;-73
2022/08/22 01:29:46;;;;;;;4.87;4.37;;;16.90;85.10;;;;;;5050325;28;20441;-73
2022/08/22 01:32:48;;;;;;;4.87;4.47;;;16.80;58.90;;;;;;5092610;28;20968;-73
2022/08/22 01:35:48;;;;;;;4.50;4.20;;;16.80;81.60;;;;;;5092852;28;20443;-73
2022/08/22 01:38:32;;;;;;;4.67;4.27;;;16.90;90.70;;;;;;5092782;28;20471;-73
2022/08/22 01:41:26;;;;;;;5.53;4.97;;;16.90;83.60;;;;;;5092949;28;20464;-75
2022/08/22 01:44:08;;;;;;;7.63;5.10;;;16.70;99.90;;;;;;5093069;28;20432;-74
2022/08/22 01:46:48;;;;;;;5.00;4.60;;;16.60;99.90;;;;;;5092988;28;20442;-74
2022/08/22 01:49:20;;;;;;;5.40;4.17;;;16.50;99.90;;;;;;5092866;28;20606;-74
2022/08/22 01:51:55;;;;;;;5.20;4.80;;;16.50;99.90;;;;;;5092675;28;20432;-74
2022/08/22 01:54:34;;;;;;;5.80;5.23;;;16.60;99.90;;;;;;5092626;28;20424;-74
2022/08/22 01:57:06;;;;;;;5.00;4.00;;;16.50;99.90;;;;;;5092835;28;20517;-74
2022/08/22 01:59:36;;;;;;;8.47;5.47;;;16.60;99.90;;;;;;5092687;28;20486;-74
2022/08/22 02:02:33;;;;;;;5.30;4.80;;;16.60;99.90;;;;;;5092578;28;20464;-74
2022/08/22 02:05:04;;;;;;;5.60;5.10;;;16.50;99.90;;;;;;5081819;28;20796;-74
2022/08/22 02:07:45;;;;;;;8.80;4.83;;;16.60;99.90;;;;;;5095964;28;20819;-74
2022/08/22 02:10:16;;;;;;;4.90;4.50;;;16.60;99.90;;;;;;5096336;28;20428;-74
2022/08/22 02:12:47;;;;;;;5.87;5.37;;;16.60;99.90;;;;;;5096252;28;20435;-74
2022/08/22 02:15:21;;;;;;;4.43;4.03;;;16.50;99.90;;;;;;5095960;28;20908;-74
2022/08/22 02:17:58;;;;;;;6.90;5.17;;;16.60;99.90;;;;;;5096201;28;20883;-74
2022/08/22 02:20:32;;;;;;;4.97;4.57;;;16.60;99.90;;;;;;5096103;28;20873;-74
2022/08/22 02:23:07;;;;;;;4.20;3.80;;;16.50;99.90;;;;;;5095735;28;20435;-74
2022/08/22 02:25:49;;;;;;;5.77;4.83;;;16.40;99.90;;;;;;5096122;28;20558;-74
2022/08/22 02:28:27;;;;;;;6.00;4.70;;;16.50;99.90;;;;;;5096137;28;20502;-74
2022/08/22 02:31:03;;;;;;;6.33;5.40;;;16.50;99.90;;;;;;5096392;28;20428;-74
2022/08/22 02:33:33;;;;;;;4.93;4.43;;;16.50;99.90;;;;;;5095901;28;20477;-74
2022/08/22 02:36:06;;;;;;;7.67;4.97;;;16.50;99.90;;;;;;5095528;28;20432;-74
2022/08/22 02:38:40;;;;;;;5.80;5.30;;;16.60;99.90;;;;;;5095317;28;20479;-74
2022/08/22 02:41:21;;;;;;;5.37;4.97;;;16.50;99.90;;;;;;5095640;28;20474;-74
2022/08/22 02:43:59;;;;;;;6.90;5.97;;;16.60;99.90;;;;;;5095706;28;20428;-74
2022/08/22 02:46:30;;;;;;;5.83;4.67;;;16.60;99.90;;;;;;5095601;28;20507;-74
2022/08/22 02:49:08;;;;;;;5.60;5.20;;;16.50;99.90;;;;;;5095621;28;20466;-75
2022/08/22 02:51:43;;;;;;;6.03;5.13;;;16.40;99.90;;;;;;5095692;28;20435;-74
2022/08/22 02:54:17;;;;;;;5.67;5.17;;;16.50;99.90;;;;;;5095558;28;20480;-74
2022/08/22 02:56:49;;;;;;;4.87;4.40;;;16.50;99.90;;;;;;5095508;28;20500;-74
2022/08/22 02:59:30;;;;;;;5.47;5.07;;;16.50;99.90;;;;;;5096164;28;20424;-75
2022/08/22 03:01:57;;;;;;;8.37;4.80;;;16.50;99.90;;;;;;5095369;28;20467;-75
2022/08/22 03:04:46;;;;;;;5.10;4.60;;;16.50;99.90;;;;;;5094867;28;20954;-74
2022/08/22 03:07:23;;;;;;;5.00;4.57;;;16.50;99.90;;;;;;5095075;28;20467;-74
2022/08/22 03:09:59;;;;;;;6.10;5.43;;;16.50;99.90;;;;;;5094975;28;20926;-74
2022/08/22 03:12:31;;;;;;;5.33;4.93;;;16.40;99.90;;;;;;5095102;28;20477;-74
2022/08/22 03:15:05;;;;;;;5.27;4.57;;;16.40;99.90;;;;;;5095175;28;20489;-74
2022/08/22 03:17:37;;;;;;;7.40;5.27;;;16.40;99.90;;;;;;5095085;28;20862;-74
2022/08/22 03:20:08;;;;;;;4.70;4.20;;;16.50;99.90;;;;;;5094559;28;20428;-74
2022/08/22 03:22:43;;;;;;;9.87;5.53;;;16.60;99.90;;;;;;5094942;28;20435;-74
2022/08/22 03:25:29;;;;;;;5.57;5.00;;;16.60;99.90;;;;;;5094872;28;20515;-74
2022/08/22 03:28:00;;;;;;;7.07;5.53;;;16.60;99.90;;;;;;5094699;28;20823;-74
2022/08/22 03:30:35;;;;;;;6.37;5.07;;;16.60;99.90;;;;;;5094740;28;20424;-74
2022/08/22 03:33:15;;;;;;;5.60;5.10;;;16.70;99.90;;;;;;5094833;28;20427;-74
2022/08/22 03:36:10;;;;;;;6.03;4.70;;;16.70;99.90;;;;;;5094743;28;20428;-74
2022/08/22 03:38:52;;;;;;;5.83;4.93;;;16.80;99.90;;;;;;5094175;28;20479;-74
2022/08/22 03:42:10;;;;;;;5.53;4.70;;;16.80;99.90;;;;;;5094565;28;20500;-74
2022/08/22 03:45:10;;;;;;;7.03;4.80;;;16.70;99.90;;;;;;5023732;28;20493;-73
2022/08/22 03:48:08;;;;;;;6.03;5.53;;;16.70;99.90;;;;;;5093438;28;20471;-73
2022/08/22 03:51:07;;;;;;;5.80;5.30;;;16.70;99.90;;;;;;5094288;28;20455;-73
2022/08/22 03:54:04;;;;;;;5.77;5.33;;;16.70;99.90;;;;;;5094368;28;20427;-73
2022/08/22 03:57:09;;;;;;;5.60;5.00;;;16.60;99.90;;;;;;5092978;28;20452;-74
2022/08/22 04:00:01;;;;;;;5.73;5.23;;;16.60;99.90;;;;;;5094095;28;20440;-74
2022/08/22 04:02:49;;;;;;;6.20;5.60;;;16.70;99.90;;;;;;5094353;28;20460;-74
2022/08/22 04:05:48;;;;;;;5.67;5.17;;;16.70;99.90;;;;;;5094362;28;20459;-74
2022/08/22 04:08:37;;;;;;;6.73;4.87;;;16.80;99.90;;;;;;5090651;28;20475;-73
2022/08/22 04:11:38;;;;;;;5.23;4.50;;;16.70;99.90;;;;;;5094222;28;20440;-74
2022/08/22 04:14:27;;;;;;;6.63;5.67;;;16.70;99.90;;;;;;5090001;28;20490;-73
2022/08/22 04:17:15;;;;;;;6.63;5.97;;;16.70;99.90;;;;;;5093791;28;20434;-73
2022/08/22 04:20:21;;;;;;;8.33;5.50;;;16.70;99.90;;;;;;5093807;28;20546;-73
2022/08/22 04:23:27;;;;;;;8.43;5.10;;;16.70;99.90;;;;;;5081148;28;20881;-73
2022/08/22 04:25:58;;;;;;;8.70;5.03;;;16.60;99.90;;;;;;5093636;28;20435;-73
2022/08/22 04:28:29;;;;;;;6.77;5.70;;;16.60;99.90;;;;;;5092863;28;20848;-74
2022/08/22 04:31:01;;;;;;;9.37;6.30;;;16.60;99.90;;;;;;5093431;28;20424;-73
2022/08/22 04:33:32;;;;;;;8.20;5.47;;;16.60;99.90;;;;;;5093579;28;20431;-74
2022/08/22 04:36:05;;;;;;;6.00;5.40;;;16.60;99.90;;;;;;5093575;28;20435;-75
2022/08/22 04:38:39;;;;;;;5.87;5.37;;;16.70;99.90;;;;;;5093177;28;20479;-74
2022/08/22 04:41:12;;;;;;;5.80;5.10;;;16.70;99.90;;;;;;5093068;28;20463;-74
2022/08/22 04:43:44;;;;;;;9.20;6.10;;;16.70;99.90;;;;;;5093376;28;20808;-74
2022/08/22 04:46:18;;;;;;;9.70;5.70;;;16.70;99.90;;;;;;5093474;28;20791;-74
2022/08/22 04:48:50;;;;;;;8.53;6.00;;;16.60;99.90;;;;;;5093231;28;20471;-74
2022/08/22 04:51:22;;;;;;;7.17;5.13;;;16.60;99.90;;;;;;5093187;28;20416;-74
2022/08/22 04:54:13;;;;;;;6.53;5.73;;;16.60;99.90;;;;;;5093460;28;20896;-74
2022/08/22 04:56:50;;;;;;;6.70;5.30;;;16.80;99.90;;;;;;5093567;28;20588;-75
2022/08/22 04:59:19;;;;;;;14.53;6.17;;;16.80;99.90;;;;;;5093183;28;20443;-74
2022/08/22 05:01:53;;;;;;;7.00;5.67;;;16.80;99.90;;;;;;5093131;28;20506;-74
2022/08/22 05:04:23;;;;;;;6.77;5.60;;;16.70;99.90;;;;;;5093902;28;20839;-75
2022/08/22 05:06:53;;;;;;;9.13;5.97;;;16.80;99.90;;;;;;5093008;28;20428;-74
2022/08/22 05:09:26;;;;;;;9.83;6.53;;;16.70;99.90;;;;;;5093751;28;20439;-74
2022/08/22 05:11:59;;;;;;;9.10;5.90;;;16.70;99.90;;;;;;5093815;28;20435;-74
2022/08/22 05:14:30;;;;;;;8.67;6.20;;;16.80;99.90;;;;;;5093044;28;20523;-74
2022/08/22 05:16:58;;;;;;;9.53;6.57;;;17.10;99.90;;;;;;5092862;28;20553;-74
2022/08/22 05:19:28;;;;;;;6.83;6.17;;;16.90;99.90;;;;;;5092757;28;20440;-75
2022/08/22 05:21:56;;;;;;;7.90;6.00;;;16.90;99.90;;;;;;5092769;28;20484;-74
2022/08/22 05:24:30;;;;;;;6.47;5.77;;;16.80;99.90;;;;;;5092803;28;20448;-74
2022/08/22 05:27:10;;;;;;;5.63;5.23;;;16.80;99.90;;;;;;5092391;28;20960;-74
2022/08/22 05:29:40;;;;;;;8.70;6.70;;;17.00;99.90;;;;;;5092856;28;20428;-74
2022/08/22 05:32:12;;;;;;;12.67;6.70;;;17.00;99.90;;;;;;5093544;28;20447;-74
2022/08/22 05:34:42;;;;;;;7.87;6.40;;;17.10;99.90;;;;;;5092938;28;20438;-74
2022/08/22 05:37:13;;;;;;;8.93;7.30;;;17.20;99.90;;;;;;5093109;28;20483;-75
2022/08/22 05:39:46;;;;;;;10.00;7.23;;;17.20;99.90;;;;;;5092542;28;20420;-74
2022/08/22 05:42:16;;;;;;;10.90;7.80;;;17.20;99.90;;;;;;5095464;28;20468;-74
2022/08/22 05:44:43;;;;;;;9.20;7.20;;;17.20;99.90;;;;;;5096775;28;20773;-74
2022/08/22 05:47:21;;;;;;;18.03;9.73;;;17.40;99.90;;;;;;5097768;28;20467;-77
2022/08/22 05:50:01;;;;;;;11.90;8.87;;;17.40;99.90;;;;;;5096675;28;20431;-74
2022/08/22 05:52:42;;;;;;;10.53;7.40;;;17.50;99.90;;;;;;5096325;28;20474;-74
2022/08/22 05:55:21;;;;;;;8.27;7.37;;;17.60;99.90;;;;;;5096461;28;20423;-74
2022/08/22 05:57:52;;;;;;;9.10;7.63;;;17.70;91.60;;;;;;5096593;28;20467;-74
2022/08/22 06:00:22;;;;;;;12.67;6.93;;;17.70;78.10;;;;;;5096790;28;20431;-74
2022/08/22 06:02:57;;;;;;;8.53;6.90;;;17.80;55.90;;;;;;5096833;28;20483;-74
2022/08/22 06:05:27;;;;;;;10.33;7.43;;;17.90;75.90;;;;;;5097256;28;20438;-75
2022/08/22 06:07:59;;;;;;;18.57;8.37;;;18.00;92.70;;;;;;5097307;28;20523;-74
2022/08/22 06:10:32;;;;;;;10.07;7.47;;;18.10;74.60;;;;;;5097386;28;20811;-75
2022/08/22 06:13:03;;;;;;;8.17;6.83;;;18.20;54.20;;;;;;5096318;28;20443;-74
2022/08/22 06:15:38;;;;;;;9.00;6.77;;;18.30;21.80;;;;;;5095836;28;20428;-74
2022/08/22 06:18:08;;;;;;;7.83;6.90;;;18.50;1.00;;;;;;5095928;28;20513;-74
2022/08/22 06:20:39;;;;;;;18.37;7.67;;;18.60;1.00;;;;;;5096195;28;20455;-74
2022/08/22 06:23:08;;;;;;;12.03;7.63;;;18.80;1.00;;;;;;5096595;28;20460;-74
2022/08/22 06:25:40;;;;;;;15.13;7.27;;;18.90;1.00;;;;;;5095906;28;20448;-74
2022/08/22 06:28:10;;;;;;;12.07;7.43;;;19.00;1.00;;;;;;5095743;28;20471;-73
2022/08/22 06:30:38;;;;;;;10.23;7.50;;;19.10;1.00;;;;;;5095692;28;20432;-74
2022/08/22 06:33:09;;;;;;;10.60;7.63;;;19.30;1.00;;;;;;5096847;28;20474;-75
2022/08/22 06:38:28;;;;;;;8.60;7.30;;;19.60;1.00;;;;;;5095326;28;20467;-74
2022/08/22 06:40:59;;;;;;;6.93;5.97;;;19.80;1.00;;;;;;5094679;28;20967;-75
2022/08/22 06:43:36;;;;;;;14.37;7.87;;;19.90;1.00;;;;;;5094870;28;20516;-74
2022/08/22 06:46:03;;;;;;;8.37;6.10;;;20.00;99.90;;;;;;5095051;28;20911;-74
2022/08/22 06:48:30;;;;;;;11.93;6.20;;;20.10;1.00;;;;;;5094959;28;20464;-74
2022/08/22 06:50:59;;;;;;;8.80;7.20;;;20.10;1.00;;;;;;5095371;28;20448;-74
2022/08/22 06:53:31;;;;;;;8.87;6.70;;;20.10;1.00;;;;;;5095058;28;20440;-74
2022/08/22 06:56:04;;;;;;;7.03;5.90;;;20.20;1.00;;;;;;5095417;28;20432;-74
2022/08/22 06:58:34;;;;;;;8.10;6.23;;;20.30;1.00;;;;;;5095324;28;20508;-74
2022/08/22 07:01:06;;;;;;;8.30;6.27;;;20.30;1.00;;;;;;5096657;28;20463;-74
2022/08/22 07:03:36;;;;;;;6.70;5.73;;;20.30;1.00;;;;;;5095314;28;20463;-74
2022/08/22 07:06:04;;;;;;;8.27;5.47;;;20.40;1.00;;;;;;5095189;28;20444;-73
2022/08/22 07:08:33;;;;;;;5.93;4.93;;;20.40;76.70;;;;;;5095253;28;20558;-74
2022/08/22 07:11:14;;;;;;;5.43;4.80;;;20.40;15.50;;;;;;5095052;28;20444;-73
2022/08/22 07:13:45;;;;;;;5.57;5.00;;;20.50;1.00;;;;;;5095636;28;20432;-75
2022/08/22 07:16:12;;;;;;;6.60;5.23;;;20.60;1.00;;;;;;5095206;28;20908;-73
2022/08/22 07:18:49;;;;;;;6.57;4.90;;;20.60;99.90;;;;;;5095134;28;20464;-74
2022/08/22 07:21:25;;;;;;;5.43;4.53;;;20.80;1.00;;;;;;5095085;28;20482;-74
2022/08/22 07:23:53;;;;;;;7.43;5.60;;;20.90;1.00;;;;;;5094977;28;20432;-74
2022/08/22 07:26:29;;;;;;;7.50;5.40;;;20.70;99.90;;;;;;5095050;28;20815;-74
2022/08/22 07:29:01;;;;;;;7.53;5.20;;;20.80;90.60;;;;;;5095190;28;20470;-78
2022/08/22 07:31:35;;;;;;;7.87;4.40;;;20.80;99.90;;;;;;5095059;28;20431;-74
2022/08/22 07:34:22;;;;;;;10.03;6.00;;;20.80;99.90;;;;;;5094675;28;20428;-74
2022/08/22 07:36:57;;;;;;;9.60;7.53;;;21.00;99.90;;;;;;5094288;28;20526;-74
2022/08/22 07:39:30;;;;;;;10.43;6.70;;;20.70;1.00;;;;;;5094033;28;20432;-74
2022/08/22 07:42:06;;;;;;;5.67;4.37;;;20.80;99.90;;;;;;5094181;28;20464;-73
2022/08/22 07:44:43;;;;;;;7.80;5.00;;;20.80;99.90;;;;;;5094283;28;20424;-74
2022/08/22 07:47:15;;;;;;;5.07;4.40;;;20.90;99.90;;;;;;5094564;28;21016;-74
2022/08/22 07:49:54;;;;;;;5.60;4.17;;;20.90;95.70;;;;;;5094637;28;20950;-74
2022/08/22 07:52:22;;;;;;;4.50;4.10;;;21.00;99.90;;;;;;5094387;28;20443;-74
2022/08/22 07:54:56;;;;;;;7.50;4.70;;;21.00;1.00;;;;;;5094472;28;20440;-74
2022/08/22 07:57:29;;;;;;;4.73;4.10;;;21.00;99.90;;;;;;5094002;28;20467;-74
2022/08/22 07:59:59;;;;;;;5.80;4.30;;;21.20;99.90;;;;;;5094024;28;20485;-74
2022/08/22 08:02:26;;;;;;;12.40;4.03;;;21.10;1.00;;;;;;5093929;28;20479;-74
2022/08/22 08:04:55;;;;;;;10.77;6.63;;;21.20;99.90;;;;;;5093183;28;20822;-74
2022/08/22 08:07:25;;;;;;;7.33;4.90;;;21.30;99.90;;;;;;5093852;28;20478;-74
2022/08/22 08:09:55;;;;;;;9.50;4.80;;;21.40;1.00;;;;;;5093949;28;20793;-74
2022/08/22 08:12:35;;;;;;;6.37;4.73;;;21.30;99.90;;;;;;5094174;28;20432;-74
2022/08/22 08:15:05;;;;;;;11.43;4.93;;;21.40;99.90;;;;;;5093987;28;20431;-74
2022/08/22 08:17:35;;;;;;;5.63;3.53;;;21.50;1.00;;;;;;5093997;28;20467;-74
2022/08/22 08:20:07;;;;;;;6.13;3.73;;;21.50;1.00;;;;;;5093871;28;20439;-75
2022/08/22 08:22:36;;;;;;;4.20;3.70;;;21.60;1.00;;;;;;5093921;28;20471;-74
2022/08/22 08:25:04;;;;;;;6.53;2.57;;;21.60;1.00;;;;;;5093841;28;20447;-74
2022/08/22 08:30:23;;;;;;;5.07;2.77;;;21.60;99.90;;;;;;5093783;28;20407;-74
2022/08/22 08:32:55;;;;;;;5.67;2.67;;;21.70;1.00;;;;;;5093583;28;20493;-75
2022/08/22 08:35:30;;;;;;;6.67;2.90;;;21.70;1.00;;;;;;5093420;28;20429;-74
2022/08/22 08:38:01;;;;;;;7.10;2.77;;;21.60;99.90;;;;;;5093242;28;20479;-74
2022/08/22 08:40:49;;;;;;;2.37;2.00;;;21.70;1.00;;;;;;5093153;28;20852;-75
2022/08/22 08:43:28;;;;;;;4.23;3.10;;;21.70;1.00;;;;;;5093888;28;20811;-74
2022/08/22 08:46:30;;;;;;;5.30;4.77;;;21.80;99.90;;;;;;5094172;28;20845;-74
2022/08/22 08:49:12;;;;;;;6.40;2.77;;;21.80;1.00;;;;;;5093291;28;20475;-74
2022/08/22 08:51:56;;;;;;;3.93;3.57;;;21.80;99.90;;;;;;5093294;28;20423;-75
2022/08/22 08:54:44;;;;;;;5.50;3.40;;;21.80;99.90;;;;;;5093624;28;20447;-75
2022/08/22 08:57:17;;;;;;;5.67;4.30;;;21.80;99.90;;;;;;5093219;28;20467;-75
2022/08/22 08:59:50;;;;;;;6.47;3.50;;;21.80;99.90;;;;;;5093314;28;20435;-74
2022/08/22 09:02:31;;;;;;;3.33;3.03;;;21.80;99.90;;;;;;5093315;28;20544;-74
2022/08/22 09:05:24;;;;;;;6.57;4.50;;;21.80;99.90;;;;;;5093157;28;20435;-74
2022/08/22 09:08:20;;;;;;;2.77;2.57;;;22.00;99.90;;;;;;5093419;28;20472;-74
2022/08/22 09:11:25;;;;;;;3.37;2.33;;;21.90;92.60;;;;;;5093231;28;20427;-74
2022/08/22 09:14:11;;;;;;;6.03;2.90;;;22.00;99.90;;;;;;5082147;28;20521;-74
2022/08/22 09:16:49;;;;;;;4.50;2.33;;;22.10;99.90;;;;;;5092840;28;20439;-74
2022/08/22 09:19:43;;;;;;;4.23;2.53;;;22.00;1.00;;;;;;5093035;28;20767;-74
2022/08/22 09:22:43;;;;;;;6.00;4.20;;;22.00;99.90;;;;;;5092808;28;20428;-74
2022/08/22 09:25:25;;;;;;;3.70;2.87;;;22.10;45.20;;;;;;5091240;28;20443;-73
2022/08/22 09:27:59;;;;;;;7.00;3.10;;;22.00;93.40;;;;;;5092772;28;20451;-73
2022/08/22 09:30:33;;;;;;;4.13;2.60;;;22.20;99.90;;;;;;5092916;28;20443;-74
2022/08/22 09:33:05;;;;;;;3.83;3.60;;;22.20;99.90;;;;;;5092992;28;20423;-75
2022/08/22 09:35:48;;;;;;;5.80;2.90;;;22.20;50.50;;;;;;5093096;28;20429;-75
2022/08/22 09:38:33;;;;;;;5.43;2.50;;;22.30;99.90;;;;;;5115895;22;20483;-77
2022/08/22 09:41:10;;;;;;;4.83;3.20;;;22.30;99.90;;;;;;5114131;28;20514;-77
2022/08/22 09:43:42;;;;;;;6.10;3.00;;;22.50;99.90;;;;;;5114226;28;20459;-76
2022/08/22 09:46:15;;;;;;;10.30;3.03;;;22.50;99.90;;;;;;5114210;28;20906;-77
2022/08/22 09:48:49;;;;;;;7.80;3.40;;;22.50;1.00;;;;;;5113567;28;20459;-77
2022/08/22 09:51:27;;;;;;;8.77;4.67;;;22.50;60.00;;;;;;5113565;28;20424;-77
2022/08/22 09:54:10;;;;;;;7.90;5.17;;;22.60;76.20;;;;;;5114402;28;20423;-77
2022/08/22 09:56:46;;;;;;;5.73;3.00;;;22.60;26.40;;;;;;5115718;28;20572;-77
2022/08/22 09:59:21;;;;;;;6.60;2.70;;;22.60;1.00;;;;;;5129537;28;20462;-76
2022/08/22 10:01:55;;;;;;;5.57;3.00;;;22.70;99.90;;;;;;5127906;28;20423;-75
2022/08/22 10:04:44;;;;;;;5.10;3.10;;;22.60;99.90;;;;;;5118514;28;20467;-77
2022/08/22 10:07:31;;;;;;;3.13;2.93;;;22.60;1.00;;;;;;5114209;28;20516;-77
2022/08/22 10:10:08;;;;;;;5.70;3.60;;;22.70;99.90;;;;;;5113023;28;20937;-77
2022/08/22 10:12:47;;;;;;;6.30;3.10;;;22.70;99.90;;;;;;5113014;28;20423;-78
2022/08/22 10:15:20;;;;;;;3.90;3.20;;;22.80;99.90;;;;;;5113282;28;20430;-77
2022/08/22 10:17:58;;;;;;;7.47;3.57;;;22.90;99.90;;;;;;5113247;28;20466;-78
2022/08/22 10:20:30;;;;;;;2.70;2.40;;;22.70;1.00;;;;;;5113563;28;20432;-77
2022/08/22 10:23:12;;;;;;;3.10;2.83;;;22.70;1.00;;;;;;5113483;28;20536;-77
2022/08/22 10:25:43;;;;;;;4.13;2.70;;;22.80;1.00;;;;;;5113260;28;20430;-78
2022/08/22 10:28:19;;;;;;;4.97;3.00;;;22.60;1.00;;;;;;5115931;28;20489;-76
2022/08/22 10:30:54;;;;;;;5.37;3.13;;;22.80;1.00;;;;;;5117599;28;20558;-77
2022/08/22 10:33:27;;;;;;;4.30;2.73;;;22.90;1.00;;;;;;5116400;28;20955;-77
2022/08/22 10:36:03;;;;;;;4.60;2.43;;;22.80;1.00;;;;;;5117303;28;20427;-77
2022/08/22 10:38:36;;;;;;;6.13;3.00;;;23.00;1.00;;;;;;5116731;28;20530;-76
2022/08/22 10:41:08;;;;;;;2.33;2.20;;;23.00;1.00;;;;;;5116685;28;20416;-77
2022/08/22 10:43:43;;;;;;;5.10;2.53;;;23.10;1.00;;;;;;5116412;28;20475;-77
2022/08/22 10:46:14;;;;;;;3.53;2.60;;;23.10;1.00;;;;;;5116467;28;20423;-77
2022/08/22 10:48:53;;;;;;;2.63;2.20;;;23.00;1.00;;;;;;5116543;28;20455;-77
2022/08/22 10:51:29;;;;;;;2.50;2.30;;;23.10;1.00;;;;;;5116530;28;20427;-76
2022/08/22 10:54:17;;;;;;;5.40;2.10;;;23.10;1.00;;;;;;5116742;28;20419;-78
2022/08/22 10:56:50;;;;;;;3.10;2.80;;;23.20;64.10;;;;;;5116474;28;20427;-77
2022/08/22 10:59:28;;;;;;;5.80;2.50;;;23.30;1.00;;;;;;5116464;28;20570;-76
2022/08/22 11:02:10;;;;;;;3.20;2.40;;;23.40;1.00;;;;;;5116191;28;20431;-77
2022/08/22 11:05:04;;;;;;;3.23;2.80;;;23.40;1.00;;;;;;5116935;28;20806;-76
2022/08/22 11:07:44;;;;;;;5.53;2.27;;;23.30;1.00;;;;;;5116497;28;21021;-77
2022/08/22 11:10:31;;;;;;;5.33;2.87;;;23.20;1.00;;;;;;5116456;28;20430;-77
2022/08/22 11:13:10;;;;;;;4.10;3.53;;;23.20;1.00;;;;;;5116139;28;20419;-78
2022/08/22 11:15:54;;;;;;;5.70;2.40;;;23.30;1.00;;;;;;5116230;28;20442;-77
2022/08/22 11:18:33;;;;;;;3.43;2.50;;;23.20;1.00;;;;;;5116084;28;20458;-77
2022/08/22 11:21:03;;;;;;;5.57;3.17;;;23.40;1.00;;;;;;5116097;28;20438;-77
2022/08/22 11:23:40;;;;;;;2.17;2.00;;;23.40;1.00;;;;;;5116503;28;20459;-77
2022/08/22 11:26:25;;;;;;;3.80;2.80;;;23.30;1.00;;;;;;5116357;28;20477;-76
2022/08/22 11:29:19;;;;;;;8.20;2.40;;;23.40;1.00;;;;;;5116042;28;20493;-77
2022/08/22 11:31:53;;;;;;;3.57;2.47;;;23.30;1.00;;;;;;5116449;28;20434;-78
2022/08/22 11:34:33;;;;;;;5.70;2.63;;;23.30;1.00;;;;;;5115626;27;20898;-76
2022/08/22 11:37:08;;;;;;;4.13;2.00;;;23.30;1.00;;;;;;5116049;28;20435;-76
2022/08/22 11:39:43;;;;;;;5.53;2.63;;;23.30;1.00;;;;;;5116955;27;20450;-76
2022/08/22 11:42:17;;;;;;;6.23;2.50;;;23.20;1.00;;;;;;5115961;28;20423;-77
2022/08/22 11:44:52;;;;;;;3.10;2.13;;;23.30;1.00;;;;;;5115815;28;20467;-77
2022/08/22 11:47:22;;;;;;;3.00;2.50;;;23.30;1.00;;;;;;5115436;28;20423;-77
2022/08/22 11:49:56;;;;;;;2.70;2.50;;;23.40;1.00;;;;;;5115984;28;20855;-77
2022/08/22 11:52:52;;;;;;;5.43;2.40;;;23.50;1.00;;;;;;5115668;28;20435;-77
2022/08/22 11:55:25;;;;;;;5.10;2.97;;;23.50;1.00;;;;;;5114703;28;20820;-77
2022/08/22 11:58:02;;;;;;;4.87;3.90;;;23.60;1.00;;;;;;5115671;28;20458;-77
2022/08/22 12:00:36;;;;;;;6.90;2.67;;;23.70;1.00;;;;;;5115278;28;20435;-77
2022/08/22 12:03:24;;;;;;;6.60;2.93;;;23.80;1.00;;;;;;5115503;28;20430;-77
2022/08/22 12:05:55;;;;;;;5.73;2.40;;;23.80;1.00;;;;;;5115179;28;20798;-77
2022/08/22 12:08:45;;;;;;;3.37;2.30;;;24.00;1.00;;;;;;5115094;28;20466;-77
2022/08/22 12:11:22;;;;;;;3.43;2.43;;;24.10;1.00;;;;;;5114981;28;20447;-78
2022/08/22 12:13:53;;;;;;;5.50;2.90;;;24.00;1.00;;;;;;5114726;28;20430;-77
2022/08/22 12:16:28;;;;;;;3.63;2.40;;;23.70;1.00;;;;;;5114648;27;20428;-77
2022/08/22 12:19:04;;;;;;;2.43;2.20;;;23.50;1.00;;;;;;5115597;28;20446;-77
2022/08/22 12:21:52;;;;;;;4.90;2.77;;;23.60;1.00;;;;;;5115268;28;20438;-78
2022/08/22 12:24:37;;;;;;;3.53;3.13;;;23.50;1.00;;;;;;5114115;28;20463;-77
2022/08/22 12:27:29;;;;;;;5.00;4.17;;;23.50;1.00;;;;;;5115794;28;20431;-76
2022/08/22 12:30:11;;;;;;;4.03;2.83;;;23.50;1.00;;;;;;5115623;28;20438;-77
2022/08/22 12:33:25;;;;;;;3.70;3.00;;;23.40;1.00;;;;;;5115909;28;20431;-76
2022/08/22 12:36:05;;;;;;;5.10;2.10;;;23.40;1.00;;;;;;5115347;28;20819;-77
2022/08/22 12:38:45;;;;;;;7.33;3.20;;;23.60;1.00;;;;;;5114400;28;20474;-77
2022/08/22 12:41:34;;;;;;;3.93;2.50;;;23.50;1.00;;;;;;5114409;28;20969;-77
2022/08/22 12:44:18;;;;;;;2.70;2.40;;;23.50;1.00;;;;;;5114769;28;20463;-76
2022/08/22 12:47:06;;;;;;;3.60;3.00;;;23.60;1.00;;;;;;5114404;28;20439;-77
2022/08/22 12:49:46;;;;;;;4.70;2.37;;;23.60;1.00;;;;;;5113663;28;20432;-76
2022/08/22 12:52:27;;;;;;;2.40;1.80;;;23.60;1.00;;;;;;5114497;28;20431;-77
2022/08/22 12:55:17;;;;;;;2.30;1.87;;;23.50;1.00;;;;;;5115178;28;20432;-77
2022/08/22 12:57:52;;;;;;;3.83;1.63;;;23.60;1.00;;;;;;5114288;28;20459;-76
2022/08/22 13:00:29;;;;;;;2.07;1.87;;;23.50;1.00;;;;;;5114644;28;20438;-77
2022/08/22 13:03:01;;;;;;;8.10;3.53;;;23.40;1.00;;;;;;5114643;28;20441;-78
2022/08/22 13:05:30;;;;;;;2.20;1.87;;;23.50;1.00;;;;;;5113941;28;21096;-77
2022/08/22 13:08:02;;;;;;;5.00;2.70;;;23.40;1.00;;;;;;5113962;28;20474;-76
2022/08/22 13:10:39;;;;;;;2.50;1.87;;;23.50;1.00;;;;;;5113912;28;20776;-77
2022/08/22 13:13:07;;;;;;;4.60;1.80;;;23.50;1.00;;;;;;5114386;28;20450;-77
2022/08/22 13:15:37;;;;;;;5.60;2.17;;;23.60;1.00;;;;;;5113813;28;20520;-77
2022/08/22 13:18:12;;;;;;;2.77;2.30;;;23.60;1.00;;;;;;5113408;28;20974;-77
2022/08/22 13:20:42;;;;;;;3.83;2.40;;;23.50;1.00;;;;;;5113574;28;20435;-77
2022/08/22 13:23:15;;;;;;;5.90;2.40;;;23.50;1.00;;;;;;5113550;28;20435;-77
2022/08/22 13:26:00;;;;;;;3.57;1.90;;;23.60;1.00;;;;;;5113474;28;20424;-77
2022/08/22 13:28:29;;;;;;;4.67;2.90;;;23.70;1.00;;;;;;5113622;28;20795;-77
2022/08/22 13:30:58;;;;;;;2.77;2.57;;;23.90;1.00;;;;;;5113984;28;20446;-77
2022/08/22 13:33:30;;;;;;;4.07;3.00;;;23.80;1.00;;;;;;5113650;28;20446;-77
2022/08/22 13:36:02;;;;;;;3.83;3.53;;;23.70;1.00;;;;;;5113425;28;20427;-77
2022/08/22 13:38:38;;;;;;;5.27;4.60;;;23.80;1.00;;;;;;5112856;28;20477;-77
2022/08/22 13:41:08;;;;;;;3.00;2.70;;;23.80;1.00;;;;;;5113874;28;20434;-78
2022/08/22 13:43:52;;;;;;;3.73;2.93;;;23.80;1.00;;;;;;5114719;28;20427;-77
2022/08/22 13:46:24;;;;;;;2.70;2.50;;;23.80;1.00;;;;;;5113681;28;20431;-80
2022/08/22 13:48:55;;;;;;;3.00;2.33;;;23.80;1.00;;;;;;5115899;28;20470;-77
2022/08/22 13:51:28;;;;;;;4.87;3.73;;;23.70;1.00;;;;;;5115083;28;20510;-77
2022/08/22 13:54:05;;;;;;;5.13;3.43;;;23.60;1.00;;;;;;5113768;28;20427;-77